Time;durP1;ratioP1;P1;durP2;ratioP2;P2;SDS_P1;SDS_P2;PMS_P1;PMS_P2;Temp;Humidity;BMP_temperature;BMP_pressure;BME280_temperature;BME280_humidity;BME280_pressure;Samples;Min_cycle;Max_cycle;Signal;HPM_P1;HPM_P2
2022/05/20 00:02:24;;;;;;;8.20;3.63;;;16.10;61.30;;;;;;5048541;28;20013;-69
2022/05/20 00:04:51;;;;;;;6.65;3.20;;;16.10;61.40;;;;;;5047271;28;20029;-67
2022/05/20 00:07:17;;;;;;;8.75;3.50;;;16.00;61.40;;;;;;5047797;28;20146;-71
2022/05/20 00:09:49;;;;;;;8.07;3.65;;;16.10;61.60;;;;;;5048599;28;20421;-69
2022/05/20 00:12:17;;;;;;;5.60;3.58;;;16.00;61.60;;;;;;5047389;28;20021;-71
2022/05/20 00:14:44;;;;;;;5.75;3.38;;;16.00;61.60;;;;;;5048790;28;20048;-70
2022/05/20 00:17:10;;;;;;;7.50;3.63;;;16.10;61.60;;;;;;5047813;28;20361;-72
2022/05/20 00:19:39;;;;;;;8.30;3.13;;;16.00;61.70;;;;;;5048002;28;20102;-71
2022/05/20 00:22:06;;;;;;;7.72;2.72;;;16.00;61.80;;;;;;5047989;28;20028;-72
2022/05/20 00:24:33;;;;;;;9.85;3.08;;;16.00;61.80;;;;;;5047839;28;20021;-70
2022/05/20 00:27:00;;;;;;;8.13;3.00;;;16.00;61.70;;;;;;5047727;28;20079;-69
2022/05/20 00:29:26;;;;;;;6.72;3.03;;;16.00;61.60;;;;;;5047722;28;20021;-70
2022/05/20 00:31:53;;;;;;;5.18;3.03;;;16.00;61.70;;;;;;5045723;28;20051;-72
2022/05/20 00:34:20;;;;;;;6.07;3.42;;;15.90;61.60;;;;;;5047438;28;20092;-72
2022/05/20 00:36:46;;;;;;;7.45;3.30;;;16.00;61.60;;;;;;5047944;28;20025;-71
2022/05/20 00:39:13;;;;;;;7.63;2.92;;;15.90;61.60;;;;;;5047849;28;20120;-72
2022/05/20 00:41:39;;;;;;;4.43;2.38;;;15.90;61.70;;;;;;5047548;28;20061;-72
2022/05/20 00:44:06;;;;;;;9.32;3.22;;;15.90;61.90;;;;;;5048911;28;20813;-70
2022/05/20 00:46:32;;;;;;;7.95;2.75;;;15.90;62.10;;;;;;5047211;28;20041;-70
2022/05/20 00:49:09;;;;;;;7.38;3.33;;;15.90;62.20;;;;;;5048397;28;20049;-68
2022/05/20 00:51:58;;;;;;;6.10;3.15;;;15.90;62.50;;;;;;5046825;28;20025;-66
2022/05/20 00:54:34;;;;;;;7.15;3.25;;;15.90;62.60;;;;;;5047730;28;20079;-65
2022/05/20 00:57:07;;;;;;;4.47;2.92;;;15.90;62.80;;;;;;5047905;28;20632;-70
2022/05/20 00:59:38;;;;;;;7.78;3.28;;;15.90;63.10;;;;;;5046928;28;20104;-66
2022/05/20 01:02:14;;;;;;;4.88;2.78;;;15.90;63.20;;;;;;5045738;28;20363;-67
2022/05/20 01:04:42;;;;;;;4.43;2.58;;;15.90;63.10;;;;;;5046332;28;20086;-65
2022/05/20 01:07:09;;;;;;;4.53;2.28;;;15.90;63.10;;;;;;5046045;28;20047;-66
2022/05/20 01:09:38;;;;;;;8.57;2.75;;;15.90;63.10;;;;;;5047465;28;20104;-65
2022/05/20 01:12:05;;;;;;;5.75;2.70;;;15.90;63.10;;;;;;5046770;28;20017;-65
2022/05/20 01:14:32;;;;;;;2.42;1.88;;;15.90;63.10;;;;;;5047223;28;20012;-65
2022/05/20 01:16:59;;;;;;;6.47;2.35;;;15.90;63.20;;;;;;5046268;28;20130;-66
2022/05/20 01:19:48;;;;;;;4.43;2.00;;;15.90;63.20;;;;;;5048267;28;20039;-65
2022/05/20 01:22:37;;;;;;;7.38;2.22;;;15.90;63.60;;;;;;5045911;28;20033;-66
2022/05/20 01:25:05;;;;;;;4.97;1.95;;;15.90;64.00;;;;;;5045020;28;20017;-65
2022/05/20 01:27:32;;;;;;;4.07;1.90;;;15.90;63.20;;;;;;5046974;28;20033;-66
2022/05/20 01:29:58;;;;;;;5.28;2.70;;;15.90;63.00;;;;;;5046103;28;20079;-66
2022/05/20 01:32:25;;;;;;;6.75;1.98;;;15.90;62.80;;;;;;5047409;28;20022;-70
2022/05/20 01:34:51;;;;;;;5.60;1.83;;;15.90;62.70;;;;;;5040049;28;20064;-67
2022/05/20 01:37:18;;;;;;;12.00;7.75;;;15.80;62.50;;;;;;5047219;28;20021;-65
2022/05/20 01:39:44;;;;;;;21.65;16.27;;;15.80;62.60;;;;;;5046764;28;20025;-65
2022/05/20 01:42:20;;;;;;;17.20;11.15;;;15.80;62.60;;;;;;5046371;28;20380;-65
2022/05/20 01:44:57;;;;;;;9.88;6.15;;;15.80;62.60;;;;;;5045186;28;20025;-65
2022/05/20 01:47:53;;;;;;;7.05;4.15;;;15.80;62.50;;;;;;5046275;28;20041;-65
2022/05/20 01:50:36;;;;;;;9.13;2.42;;;15.80;62.50;;;;;;5047235;28;20106;-66
2022/05/20 01:53:09;;;;;;;5.55;2.78;;;15.70;62.50;;;;;;5046186;28;20021;-68
2022/05/20 01:55:53;;;;;;;2.65;1.27;;;15.70;62.60;;;;;;5045716;28;20053;-68
2022/05/20 01:58:27;;;;;;;6.47;2.47;;;15.70;62.60;;;;;;5046468;28;20590;-66
2022/05/20 02:00:57;;;;;;;3.38;1.48;;;15.70;62.60;;;;;;5043336;28;20029;-65
2022/05/20 02:04:00;;;;;;;2.53;1.23;;;15.70;62.80;;;;;;5046472;28;20174;-65
2022/05/20 02:06:34;;;;;;;2.45;1.27;;;15.70;62.90;;;;;;5023693;28;20522;-65
2022/05/20 02:09:07;;;;;;;3.58;1.40;;;15.70;62.90;;;;;;5043918;28;20018;-65
2022/05/20 02:11:49;;;;;;;4.32;1.50;;;15.60;62.90;;;;;;5047116;28;20037;-65
2022/05/20 02:14:39;;;;;;;2.40;1.42;;;15.60;63.00;;;;;;5046206;28;20387;-66
2022/05/20 02:17:11;;;;;;;3.72;1.42;;;15.60;63.00;;;;;;5045654;28;20095;-65
2022/05/20 02:20:13;;;;;;;2.38;1.23;;;15.60;63.10;;;;;;5046777;28;20102;-66
2022/05/20 02:22:46;;;;;;;4.18;1.40;;;15.60;63.70;;;;;;5041901;28;20044;-65
2022/05/20 02:25:20;;;;;;;4.05;1.40;;;15.60;63.10;;;;;;5046489;28;20028;-65
2022/05/20 02:27:53;;;;;;;2.97;1.15;;;15.50;63.00;;;;;;5046043;28;20404;-65
2022/05/20 02:30:24;;;;;;;2.47;1.08;;;15.50;63.10;;;;;;5043690;28;20035;-65
2022/05/20 02:33:08;;;;;;;5.20;1.02;;;15.50;63.20;;;;;;5044527;28;20029;-65
2022/05/20 02:35:35;;;;;;;4.63;1.48;;;15.50;63.30;;;;;;5045401;28;20070;-67
2022/05/20 02:38:09;;;;;;;2.35;1.05;;;15.50;63.40;;;;;;5047212;28;20404;-66
2022/05/20 02:40:37;;;;;;;9.88;6.25;;;15.50;63.50;;;;;;5046728;28;20029;-68
2022/05/20 02:43:03;;;;;;;45.60;34.60;;;15.40;63.60;;;;;;5042925;28;20017;-66
2022/05/20 02:45:30;;;;;;;45.03;35.45;;;15.40;63.70;;;;;;5045803;28;20149;-66
2022/05/20 02:47:56;;;;;;;28.52;20.20;;;15.40;63.90;;;;;;5045809;28;20045;-67
2022/05/20 02:50:23;;;;;;;16.73;9.60;;;15.40;64.30;;;;;;5046629;28;20155;-67
2022/05/20 02:52:50;;;;;;;12.82;5.85;;;15.40;64.70;;;;;;5045171;28;20115;-69
2022/05/20 02:55:17;;;;;;;6.22;3.78;;;15.40;64.80;;;;;;5046241;28;20032;-65
2022/05/20 02:57:47;;;;;;;9.15;2.92;;;15.40;65.10;;;;;;5043627;28;20010;-66
2022/05/20 03:05:45;;;;;;;6.85;1.70;;;15.40;65.90;;;;;;5045327;28;20075;-68
2022/05/20 03:08:12;;;;;;;15.60;3.10;;;15.40;66.00;;;;;;5046205;28;20056;-68
2022/05/20 03:10:39;;;;;;;12.13;2.53;;;15.40;65.90;;;;;;5045309;28;20033;-67
2022/05/20 03:13:07;;;;;;;6.45;2.35;;;15.40;65.80;;;;;;5045800;28;20040;-65
2022/05/20 03:15:33;;;;;;;4.93;1.70;;;15.40;66.30;;;;;;5045984;28;20044;-70
2022/05/20 03:18:00;;;;;;;6.25;2.20;;;15.40;65.40;;;;;;5045574;28;20104;-69
2022/05/20 03:20:26;;;;;;;4.72;1.73;;;15.40;65.30;;;;;;5046519;28;20057;-66
2022/05/20 03:23:32;;;;;;;14.95;2.45;;;15.30;65.10;;;;;;5044353;28;20104;-65
2022/05/20 03:26:05;;;;;;;5.38;1.60;;;15.30;65.10;;;;;;5044382;28;20048;-68
2022/05/20 03:28:33;;;;;;;6.05;1.70;;;15.30;65.10;;;;;;5043522;28;20025;-72
2022/05/20 03:31:07;;;;;;;7.03;1.63;;;15.30;65.20;;;;;;5046624;28;20061;-68
2022/05/20 03:33:38;;;;;;;4.63;2.10;;;15.30;65.30;;;;;;5049825;28;20021;-67
2022/05/20 03:36:06;;;;;;;3.92;1.88;;;15.30;65.70;;;;;;5048531;28;20028;-67
2022/05/20 03:38:34;;;;;;;4.55;1.75;;;15.30;65.80;;;;;;5049472;28;20025;-70
2022/05/20 03:41:00;;;;;;;4.20;1.60;;;15.20;65.80;;;;;;5047695;28;20045;-68
2022/05/20 03:43:27;;;;;;;4.28;1.65;;;15.30;66.20;;;;;;5048078;28;20028;-68
2022/05/20 03:45:54;;;;;;;8.02;2.05;;;15.30;66.70;;;;;;5047705;28;20028;-71
2022/05/20 03:48:21;;;;;;;5.63;2.13;;;15.20;67.00;;;;;;5047790;28;20422;-68
2022/05/20 03:50:49;;;;;;;14.85;2.45;;;15.30;67.50;;;;;;5049180;28;20408;-67
2022/05/20 03:53:15;;;;;;;7.15;1.85;;;15.30;67.60;;;;;;5047625;28;20083;-71
2022/05/20 03:55:42;;;;;;;3.97;2.45;;;15.30;67.50;;;;;;5048205;28;20023;-67
2022/05/20 03:58:08;;;;;;;7.82;2.22;;;15.40;67.70;;;;;;5048079;28;20510;-66
2022/05/20 04:03:20;;;;;;;4.93;1.73;;;15.30;68.10;;;;;;5049503;28;20494;-67
2022/05/20 04:05:46;;;;;;;9.38;3.13;;;15.40;68.60;;;;;;5048359;28;20478;-69
2022/05/20 04:08:13;;;;;;;9.27;3.20;;;15.40;68.60;;;;;;5048952;28;20029;-72
2022/05/20 04:10:40;;;;;;;10.48;2.05;;;15.40;68.90;;;;;;5047555;28;20025;-71
2022/05/20 04:13:06;;;;;;;11.30;2.60;;;15.40;68.70;;;;;;5048829;28;20028;-71
2022/05/20 04:15:33;;;;;;;13.32;2.47;;;15.40;68.50;;;;;;5046981;28;20032;-69
2022/05/20 04:18:00;;;;;;;6.18;1.90;;;15.40;68.40;;;;;;5048342;28;20044;-71
2022/05/20 04:20:26;;;;;;;4.18;1.88;;;15.30;68.50;;;;;;5048317;28;20045;-71
2022/05/20 04:22:53;;;;;;;3.30;1.83;;;15.20;69.80;;;;;;5046103;28;20017;-67
2022/05/20 04:25:19;;;;;;;11.95;9.73;;;15.20;70.10;;;;;;5049282;28;20365;-69
2022/05/20 04:27:46;;;;;;;30.05;22.45;;;15.20;70.30;;;;;;5045997;28;20033;-69
2022/05/20 04:30:13;;;;;;;27.17;17.83;;;15.20;70.30;;;;;;5047765;28;20025;-66
2022/05/20 04:32:39;;;;;;;14.93;9.32;;;15.20;70.30;;;;;;5046145;28;20075;-68
2022/05/20 04:35:07;;;;;;;6.70;5.15;;;15.20;70.30;;;;;;5048049;28;20108;-67
2022/05/20 04:37:33;;;;;;;15.27;3.78;;;15.20;70.10;;;;;;5048432;28;20021;-69
2022/05/20 04:40:00;;;;;;;9.43;3.13;;;15.20;70.00;;;;;;5047823;28;20112;-70
2022/05/20 04:48:00;;;;;;;7.50;2.75;;;15.20;70.00;;;;;;5028549;28;20484;-69
2022/05/20 04:50:27;;;;;;;2.97;1.80;;;15.20;70.00;;;;;;5047779;28;20021;-69
2022/05/20 04:52:53;;;;;;;4.28;1.73;;;15.20;69.90;;;;;;5047386;28;20472;-71
2022/05/20 04:55:20;;;;;;;8.07;2.13;;;15.10;70.10;;;;;;5047776;28;20028;-69
2022/05/20 04:57:49;;;;;;;4.18;1.70;;;15.10;70.10;;;;;;5045478;28;20024;-68
2022/05/20 05:00:19;;;;;;;7.05;1.83;;;15.10;70.40;;;;;;5045894;28;20431;-68
2022/05/20 05:03:25;;;;;;;7.88;2.58;;;15.10;70.60;;;;;;5047027;28;20155;-68
2022/05/20 05:06:31;;;;;;;6.97;2.47;;;15.10;70.80;;;;;;5046195;28;20021;-68
2022/05/20 05:09:37;;;;;;;5.40;2.20;;;15.10;70.70;;;;;;5047962;28;20056;-68
2022/05/20 05:12:43;;;;;;;6.55;1.92;;;15.20;70.60;;;;;;5047091;28;20112;-70
2022/05/20 05:15:50;;;;;;;7.47;2.92;;;15.10;70.50;;;;;;5046920;28;20461;-67
2022/05/20 05:18:56;;;;;;;9.15;3.58;;;15.10;70.20;;;;;;5046347;28;20061;-70
2022/05/20 05:22:02;;;;;;;14.23;3.45;;;15.10;70.20;;;;;;5047129;28;20028;-68
2022/05/20 05:25:08;;;;;;;5.35;3.75;;;15.10;70.10;;;;;;5046934;28;20020;-70
2022/05/20 05:28:14;;;;;;;5.55;3.45;;;15.10;70.10;;;;;;5046609;28;20071;-69
2022/05/20 05:31:20;;;;;;;8.68;4.10;;;15.10;70.10;;;;;;5045225;28;20021;-66
2022/05/20 05:34:26;;;;;;;13.27;3.85;;;15.10;70.20;;;;;;5046952;28;20100;-66
2022/05/20 05:37:32;;;;;;;9.57;3.67;;;15.00;70.20;;;;;;5043978;28;20040;-65
2022/05/20 05:40:38;;;;;;;8.65;4.15;;;15.00;70.20;;;;;;5047066;28;20017;-65
2022/05/20 05:43:45;;;;;;;7.25;3.40;;;15.00;70.80;;;;;;5047348;28;20034;-68
2022/05/20 05:46:51;;;;;;;7.57;3.95;;;15.00;70.20;;;;;;5044493;28;20032;-65
2022/05/20 05:49:57;;;;;;;6.43;4.20;;;15.00;70.20;;;;;;5046674;28;20041;-65
2022/05/20 05:53:03;;;;;;;15.68;5.43;;;15.00;70.20;;;;;;5045543;28;20040;-66
2022/05/20 05:56:09;;;;;;;7.32;4.20;;;15.00;70.30;;;;;;5046532;28;20044;-65
2022/05/20 05:59:16;;;;;;;18.25;5.90;;;15.00;70.40;;;;;;5046486;28;20090;-66
2022/05/20 06:02:02;;;;;;;;;;;14.90;70.60;;;;;;5047582;28;20025;-67
2022/05/20 06:05:08;;;;;;;10.32;5.30;;;14.90;70.90;;;;;;5046646;28;20414;-67
2022/05/20 06:08:14;;;;;;;9.85;4.20;;;14.90;71.00;;;;;;5045466;28;20036;-65
2022/05/20 06:11:20;;;;;;;9.07;4.30;;;14.90;71.10;;;;;;5047078;28;20024;-66
2022/05/20 06:14:26;;;;;;;12.05;4.80;;;14.90;71.20;;;;;;5047188;28;20588;-68
2022/05/20 06:17:32;;;;;;;15.40;4.82;;;14.90;71.30;;;;;;5045844;28;20048;-66
2022/05/20 06:20:39;;;;;;;12.05;4.82;;;14.90;71.80;;;;;;5045174;28;20041;-66
2022/05/20 06:23:45;;;;;;;13.75;4.38;;;14.90;71.80;;;;;;5044631;28;20033;-65
2022/05/20 06:26:54;;;;;;;16.02;5.20;;;15.00;72.00;;;;;;5046501;28;20021;-66
2022/05/20 06:30:00;;;;;;;15.85;5.70;;;15.00;72.60;;;;;;5045552;28;20025;-65
2022/05/20 06:33:06;;;;;;;11.68;4.10;;;15.00;73.00;;;;;;5046251;28;20021;-66
2022/05/20 06:39:52;;;;;;;8.57;2.95;;;15.00;73.60;;;;;;5047184;28;20063;-64
2022/05/20 06:42:58;;;;;;;4.25;2.00;;;15.00;74.50;;;;;;5042738;28;20045;-67
2022/05/20 06:46:04;;;;;;;5.13;2.42;;;15.10;75.10;;;;;;5046318;28;20025;-66
2022/05/20 06:49:16;;;;;;;6.35;2.03;;;15.10;75.10;;;;;;5047274;28;20735;-71
2022/05/20 06:52:22;;;;;;;5.75;2.33;;;15.10;76.00;;;;;;5045419;28;20098;-70
2022/05/20 06:54:55;;;;;;;9.02;2.80;;;15.10;76.10;;;;;;5044973;28;20025;-68
2022/05/20 06:57:24;;;;;;;7.35;2.17;;;15.20;76.10;;;;;;5045903;28;20500;-67
2022/05/20 06:59:52;;;;;;;9.93;3.25;;;15.20;76.20;;;;;;5045741;28;20620;-69
2022/05/20 07:02:18;;;;;;;12.77;2.45;;;15.20;76.30;;;;;;5046641;28;20021;-66
2022/05/20 07:04:45;;;;;;;12.52;3.17;;;15.20;76.50;;;;;;5045313;28;20017;-70
2022/05/20 07:07:12;;;;;;;7.85;3.08;;;15.20;76.60;;;;;;5050462;28;20033;-71
2022/05/20 07:09:38;;;;;;;8.75;2.65;;;15.20;76.90;;;;;;5049812;28;20024;-70
2022/05/20 07:12:05;;;;;;;7.25;2.40;;;15.20;76.90;;;;;;5050032;28;20023;-71
2022/05/20 07:14:32;;;;;;;9.10;2.30;;;15.30;77.00;;;;;;5050158;28;20087;-71
2022/05/20 07:17:01;;;;;;;8.70;2.92;;;15.30;77.00;;;;;;5048995;28;20103;-70
2022/05/20 07:19:28;;;;;;;8.50;3.70;;;15.30;77.20;;;;;;5050131;28;20013;-71
2022/05/20 07:21:54;;;;;;;9.65;3.50;;;15.30;77.10;;;;;;5048988;28;20024;-71
2022/05/20 07:24:21;;;;;;;5.22;3.28;;;15.30;77.20;;;;;;5050268;28;20032;-72
2022/05/20 07:26:47;;;;;;;9.13;4.90;;;15.30;77.10;;;;;;5049058;28;20037;-72
2022/05/20 07:29:13;;;;;;;13.20;5.15;;;15.40;77.90;;;;;;5050037;28;20010;-69
2022/05/20 07:31:40;;;;;;;7.53;4.55;;;15.40;77.20;;;;;;5049567;28;20029;-71
2022/05/20 07:34:07;;;;;;;6.65;3.22;;;15.40;77.20;;;;;;5047602;28;20032;-69
2022/05/20 07:36:33;;;;;;;6.28;3.08;;;15.40;77.20;;;;;;5049874;28;20424;-72
2022/05/20 07:39:00;;;;;;;3.85;2.88;;;15.50;77.10;;;;;;5048218;28;20049;-69
2022/05/20 07:41:26;;;;;;;8.02;2.63;;;15.50;77.10;;;;;;5049561;28;20033;-71
2022/05/20 07:43:55;;;;;;;5.70;2.30;;;15.50;77.10;;;;;;5048738;28;20048;-72
2022/05/20 07:46:22;;;;;;;6.60;3.10;;;15.50;77.00;;;;;;5048512;28;20118;-71
2022/05/20 07:48:48;;;;;;;6.28;2.65;;;15.60;77.00;;;;;;5049635;28;20032;-72
2022/05/20 07:51:19;;;;;;;9.43;3.28;;;15.60;76.90;;;;;;5048709;28;20341;-71
2022/05/20 07:53:54;;;;;;;11.00;2.53;;;15.70;76.80;;;;;;5048552;28;20029;-69
2022/05/20 07:56:49;;;;;;;14.00;3.35;;;15.70;76.70;;;;;;5048417;28;20076;-71
2022/05/20 07:59:31;;;;;;;9.57;2.88;;;15.70;76.70;;;;;;5048126;28;20037;-68
2022/05/20 08:02:01;;;;;;;12.65;2.63;;;15.80;76.70;;;;;;5049289;28;20375;-68
2022/05/20 08:07:18;;;;;;;9.10;2.60;;;15.80;76.60;;;;;;5047133;28;20099;-71
2022/05/20 08:09:44;;;;;;;6.88;2.40;;;15.90;76.70;;;;;;5048189;28;20064;-70
2022/05/20 08:12:11;;;;;;;9.63;2.72;;;15.90;76.70;;;;;;5049067;28;20028;-70
2022/05/20 08:14:38;;;;;;;6.68;2.63;;;15.90;76.60;;;;;;5047245;28;20380;-69
2022/05/20 08:17:05;;;;;;;6.65;2.40;;;15.90;76.70;;;;;;5048198;28;20045;-70
2022/05/20 08:19:31;;;;;;;7.90;3.00;;;16.00;76.80;;;;;;5049378;28;20016;-69
2022/05/20 08:21:58;;;;;;;6.10;2.63;;;16.00;77.00;;;;;;5048296;28;20100;-70
2022/05/20 08:24:25;;;;;;;5.20;3.05;;;16.10;77.30;;;;;;5049111;28;20013;-71
2022/05/20 08:26:52;;;;;;;4.07;3.05;;;16.10;77.30;;;;;;5047685;28;20035;-69
2022/05/20 08:29:19;;;;;;;5.20;2.55;;;16.20;77.30;;;;;;5049086;28;20056;-70
2022/05/20 08:31:46;;;;;;;5.55;2.53;;;16.20;77.30;;;;;;5047847;28;20017;-69
2022/05/20 08:34:13;;;;;;;13.52;3.40;;;16.20;77.30;;;;;;5049082;28;20021;-69
2022/05/20 08:36:40;;;;;;;11.25;4.22;;;16.30;77.60;;;;;;5046896;28;20032;-71
2022/05/20 08:39:12;;;;;;;5.53;2.15;;;16.30;77.90;;;;;;5048464;28;20036;-71
2022/05/20 08:41:42;;;;;;;2.47;1.50;;;16.40;78.10;;;;;;5048914;28;20372;-69
2022/05/20 08:44:12;;;;;;;3.13;1.58;;;16.40;77.70;;;;;;5047203;28;20023;-69
2022/05/20 08:46:40;;;;;;;5.63;1.45;;;16.40;77.50;;;;;;5047109;28;20072;-70
2022/05/20 08:49:11;;;;;;;2.25;1.20;;;16.40;77.20;;;;;;5047703;28;20025;-68
2022/05/20 08:51:41;;;;;;;1.95;1.00;;;16.50;77.10;;;;;;5047732;28;20021;-71
2022/05/20 08:54:09;;;;;;;1.13;0.85;;;16.50;76.70;;;;;;5048647;28;20484;-71
2022/05/20 08:56:38;;;;;;;4.53;0.90;;;16.50;76.00;;;;;;5047160;28;20570;-72
2022/05/20 08:59:16;;;;;;;4.70;0.93;;;16.50;75.60;;;;;;5048498;28;20085;-72
2022/05/20 09:01:46;;;;;;;4.68;1.00;;;16.60;75.30;;;;;;5046029;28;20029;-72
2022/05/20 09:04:16;;;;;;;6.15;0.93;;;16.60;74.50;;;;;;5046935;28;20047;-71
2022/05/20 09:07:10;;;;;;;2.15;0.90;;;16.60;74.00;;;;;;5047626;28;20040;-72
2022/05/20 09:09:56;;;;;;;4.38;1.00;;;16.70;73.70;;;;;;5043899;28;20504;-71
2022/05/20 09:12:34;;;;;;;4.35;0.70;;;16.70;73.10;;;;;;5047227;28;20017;-71
2022/05/20 09:18:06;;;;;;;0.73;0.52;;;16.80;72.20;;;;;;5044985;28;20055;-72
2022/05/20 09:20:33;;;;;;;1.15;0.75;;;16.90;72.10;;;;;;5048318;28;20647;-71
2022/05/20 09:23:04;;;;;;;1.08;0.57;;;16.90;71.80;;;;;;5046544;28;20036;-71
2022/05/20 09:25:33;;;;;;;2.30;0.70;;;16.90;71.60;;;;;;5048394;28;20024;-70
2022/05/20 09:28:22;;;;;;;2.17;1.00;;;17.00;71.20;;;;;;5046033;28;20049;-70
2022/05/20 09:30:54;;;;;;;2.55;0.70;;;17.00;71.10;;;;;;5047185;28;20029;-70
2022/05/20 09:33:28;;;;;;;4.93;0.98;;;17.10;71.10;;;;;;5047550;28;20013;-65
2022/05/20 09:36:02;;;;;;;3.95;0.55;;;17.10;70.60;;;;;;5046529;28;20186;-65
2022/05/20 09:38:30;;;;;;;3.92;0.80;;;17.10;70.10;;;;;;5047460;28;20025;-66
2022/05/20 09:40:57;;;;;;;3.90;0.68;;;17.10;69.70;;;;;;5046284;28;20056;-65
2022/05/20 09:43:36;;;;;;;5.90;0.60;;;17.20;69.30;;;;;;5047481;28;20316;-66
2022/05/20 09:46:04;;;;;;;5.45;1.15;;;17.20;69.10;;;;;;5045676;28;20077;-66
2022/05/20 09:48:39;;;;;;;1.30;0.65;;;17.20;68.90;;;;;;5046671;28;20611;-65
2022/05/20 09:51:19;;;;;;;0.60;0.40;;;17.30;69.30;;;;;;5047990;28;20146;-68
2022/05/20 09:54:13;;;;;;;1.30;0.70;;;17.20;69.20;;;;;;5045384;28;20078;-69
2022/05/20 09:56:44;;;;;;;1.02;0.50;;;17.30;68.60;;;;;;5046323;28;20025;-66
2022/05/20 09:59:25;;;;;;;0.82;0.45;;;17.40;68.40;;;;;;5045405;28;20104;-71
2022/05/20 10:02:10;;;;;;;2.03;0.30;;;17.40;68.10;;;;;;5045112;28;20430;-71
2022/05/20 10:04:56;;;;;;;2.47;0.38;;;17.40;67.90;;;;;;5047739;28;20071;-70
2022/05/20 10:07:44;;;;;;;4.55;0.57;;;17.50;67.50;;;;;;5045609;28;20036;-70
2022/05/20 10:10:45;;;;;;;1.38;0.40;;;17.60;67.40;;;;;;5046407;28;20021;-71
2022/05/20 10:13:30;;;;;;;1.55;0.60;;;17.60;67.20;;;;;;5046767;28;20033;-68
2022/05/20 10:16:26;;;;;;;0.75;0.47;;;17.60;67.10;;;;;;5046750;28;20137;-72
2022/05/20 10:19:03;;;;;;;0.40;0.30;;;17.60;66.90;;;;;;5046367;28;20025;-66
2022/05/20 10:22:00;;;;;;;1.85;0.38;;;17.60;66.70;;;;;;5047636;28;20029;-65
2022/05/20 10:24:42;;;;;;;0.93;0.85;;;17.60;66.80;;;;;;5045980;28;20021;-66
2022/05/20 10:27:43;;;;;;;3.22;0.73;;;17.60;66.40;;;;;;5046486;28;20119;-65
2022/05/20 10:33:10;;;;;;;0.75;0.45;;;17.70;66.30;;;;;;5045481;28;20044;-65
2022/05/20 10:35:50;;;;;;;0.50;0.50;;;17.70;66.20;;;;;;5041133;28;20052;-65
2022/05/20 10:38:48;;;;;;;0.60;0.50;;;17.70;66.70;;;;;;5047100;28;20112;-65
2022/05/20 10:41:43;;;;;;;0.65;0.50;;;17.70;67.70;;;;;;5039549;28;20036;-67
2022/05/20 10:50:32;;;;;;;2.35;0.47;;;17.70;69.30;;;;;;5049207;28;20130;-66
2022/05/20 10:53:15;;;;;;;2.67;0.50;;;17.70;69.60;;;;;;5049893;28;20032;-68
2022/05/20 10:55:47;;;;;;;1.85;1.05;;;17.70;69.70;;;;;;5046637;28;20025;-66
2022/05/20 10:58:39;;;;;;;1.42;0.35;;;17.80;69.70;;;;;;5047635;28;20508;-66
2022/05/20 11:01:22;;;;;;;1.35;0.30;;;17.80;69.60;;;;;;5049758;28;20033;-65
2022/05/20 11:04:20;;;;;;;2.05;0.50;;;17.90;69.50;;;;;;5048469;28;20025;-69
2022/05/20 11:07:19;;;;;;;0.80;0.40;;;18.00;69.10;;;;;;5045360;28;20036;-68
2022/05/20 11:10:07;;;;;;;3.28;0.70;;;18.00;68.70;;;;;;5050235;28;20078;-69
2022/05/20 11:13:03;;;;;;;5.35;0.73;;;18.00;68.90;;;;;;5049629;28;20041;-68
2022/05/20 11:15:55;;;;;;;3.10;0.70;;;18.10;68.90;;;;;;5045467;28;20949;-68
2022/05/20 11:18:39;;;;;;;3.72;0.80;;;18.10;68.40;;;;;;5049662;28;20032;-67
2022/05/20 11:21:22;;;;;;;1.75;0.80;;;18.20;68.10;;;;;;5049435;28;20052;-66
2022/05/20 11:24:29;;;;;;;1.38;0.70;;;18.30;68.10;;;;;;5046140;28;20028;-65
2022/05/20 11:27:01;;;;;;;3.88;0.57;;;18.30;67.90;;;;;;5045047;28;20108;-65
2022/05/20 11:29:59;;;;;;;1.75;0.50;;;18.50;66.90;;;;;;5049160;28;20091;-66
2022/05/20 11:32:37;;;;;;;1.38;0.40;;;18.50;64.10;;;;;;5030327;28;20075;-65
2022/05/20 11:35:59;;;;;;;0.60;0.20;;;18.60;62.20;;;;;;5049309;28;20105;-66
2022/05/20 11:38:55;;;;;;;4.15;0.40;;;18.70;61.40;;;;;;5041720;28;20502;-65
2022/05/20 11:41:40;;;;;;;0.80;0.30;;;18.70;60.90;;;;;;5038104;28;20021;-67
2022/05/20 11:44:11;;;;;;;4.75;0.40;;;18.80;60.90;;;;;;5047072;28;20384;-67
2022/05/20 11:46:44;;;;;;;3.42;1.00;;;18.90;61.00;;;;;;5044599;28;20080;-67
2022/05/20 11:49:22;;;;;;;2.50;0.60;;;19.00;61.00;;;;;;5048534;28;20021;-66
2022/05/20 11:52:22;;;;;;;0.90;0.40;;;19.10;60.50;;;;;;5047933;28;20096;-66
2022/05/20 11:55:02;;;;;;;1.23;0.30;;;19.10;59.90;;;;;;5046883;28;20029;-65
2022/05/20 11:57:34;;;;;;;2.50;0.50;;;19.20;59.60;;;;;;5046101;28;20033;-65
2022/05/20 12:00:06;;;;;;;4.60;0.63;;;19.20;59.20;;;;;;5048861;28;20037;-66
2022/05/20 12:02:40;;;;;;;0.75;0.40;;;19.10;59.20;;;;;;5048540;28;20028;-69
2022/05/20 12:05:11;;;;;;;0.40;0.30;;;19.10;59.20;;;;;;5048772;28;20144;-65
2022/05/20 12:07:39;;;;;;;0.55;0.30;;;19.10;58.90;;;;;;5043196;28;20037;-65
2022/05/20 12:10:38;;;;;;;0.82;0.40;;;19.10;59.00;;;;;;5049411;28;20029;-66
2022/05/20 12:13:10;;;;;;;1.77;0.85;;;19.00;58.80;;;;;;5046350;28;20025;-65
2022/05/20 12:15:41;;;;;;;5.72;0.90;;;18.90;59.30;;;;;;5044945;28;20029;-64
2022/05/20 12:24:38;;;;;;;1.08;0.55;;;18.80;60.00;;;;;;5044978;28;20071;-67
2022/05/20 12:27:25;;;;;;;0.80;0.50;;;18.70;60.20;;;;;;5042914;28;20407;-68
2022/05/20 12:30:07;;;;;;;1.17;0.55;;;18.70;60.40;;;;;;5039026;28;20136;-68
2022/05/20 12:32:36;;;;;;;3.00;1.15;;;18.70;60.40;;;;;;5048545;28;20120;-65
2022/05/20 12:35:12;;;;;;;1.60;0.40;;;18.60;60.10;;;;;;5048186;28;20029;-65
2022/05/20 12:37:44;;;;;;;2.33;0.47;;;18.60;59.60;;;;;;5041819;28;20083;-68
2022/05/20 12:40:26;;;;;;;0.40;0.22;;;18.60;59.10;;;;;;5048755;28;20036;-70
2022/05/20 12:43:11;;;;;;;2.08;0.43;;;18.50;59.00;;;;;;5046666;28;20025;-65
2022/05/20 12:45:56;;;;;;;1.92;0.60;;;18.50;59.40;;;;;;5046649;28;20021;-66
2022/05/20 12:48:27;;;;;;;1.05;0.38;;;18.50;59.90;;;;;;5048447;28;20128;-66
2022/05/20 12:51:06;;;;;;;0.82;0.60;;;18.40;60.20;;;;;;5047287;28;20025;-68
2022/05/20 12:53:35;;;;;;;1.15;0.52;;;18.40;60.20;;;;;;5047923;28;20425;-67
2022/05/20 12:56:02;;;;;;;4.32;0.63;;;18.40;60.10;;;;;;5042381;28;20488;-71
2022/05/20 12:58:32;;;;;;;0.98;0.50;;;18.30;60.30;;;;;;5048454;28;20080;-71
2022/05/20 13:01:03;;;;;;;3.95;0.70;;;18.30;60.60;;;;;;5047241;28;20057;-67
2022/05/20 13:03:38;;;;;;;2.10;0.43;;;18.30;60.80;;;;;;5047102;28;20033;-69
2022/05/20 13:06:11;;;;;;;1.02;0.43;;;18.30;61.00;;;;;;5044062;28;20032;-70
2022/05/20 13:08:57;;;;;;;2.30;0.77;;;18.30;61.20;;;;;;5046932;28;20104;-73
2022/05/20 13:11:23;;;;;;;1.20;0.77;;;18.30;61.20;;;;;;5045272;28;20090;-70
2022/05/20 13:14:00;;;;;;;3.60;0.80;;;18.30;61.20;;;;;;5044735;28;20534;-68
2022/05/20 13:16:27;;;;;;;1.30;0.65;;;18.20;61.40;;;;;;5040184;28;20044;-70
2022/05/20 13:19:09;;;;;;;2.90;0.80;;;18.20;61.60;;;;;;5047697;28;20036;-70
2022/05/20 13:21:50;;;;;;;1.33;0.50;;;18.20;61.90;;;;;;5047077;28;20545;-71
2022/05/20 13:24:24;;;;;;;2.85;0.60;;;18.20;62.20;;;;;;5046189;28;20027;-71
2022/05/20 13:27:01;;;;;;;0.47;0.47;;;18.20;62.30;;;;;;5039198;28;20036;-71
2022/05/20 13:29:28;;;;;;;0.95;0.52;;;18.30;62.50;;;;;;5046154;28;20055;-70
2022/05/20 13:32:12;;;;;;;2.60;0.73;;;18.30;62.30;;;;;;5048189;28;20048;-70
2022/05/20 13:34:41;;;;;;;0.65;0.43;;;18.20;62.20;;;;;;5045547;28;20072;-72
2022/05/20 13:37:11;;;;;;;4.03;0.77;;;18.20;62.20;;;;;;5042134;28;20380;-71
2022/05/20 13:39:37;;;;;;;1.10;0.40;;;18.20;62.40;;;;;;5046456;28;20025;-66
2022/05/20 13:42:15;;;;;;;0.70;0.50;;;18.20;62.40;;;;;;5046612;28;20029;-71
2022/05/20 13:44:44;;;;;;;3.70;0.40;;;18.20;62.50;;;;;;5044988;28;20494;-72
2022/05/20 13:50:01;;;;;;;1.55;1.02;;;18.20;62.40;;;;;;5046758;28;20043;-70
2022/05/20 13:52:29;;;;;;;0.80;0.50;;;18.20;62.50;;;;;;5046355;28;20425;-71
2022/05/20 13:55:06;;;;;;;1.70;0.70;;;18.10;62.50;;;;;;5044616;28;20033;-72
2022/05/20 13:57:42;;;;;;;0.65;0.57;;;18.10;62.60;;;;;;5042771;28;20056;-72
2022/05/20 14:00:27;;;;;;;1.05;0.70;;;18.10;62.60;;;;;;5045461;28;20025;-71
2022/05/20 14:03:02;;;;;;;3.37;0.47;;;18.10;62.60;;;;;;5046991;28;20025;-69
2022/05/20 14:05:38;;;;;;;2.22;0.73;;;18.00;62.70;;;;;;5045877;28;20285;-68
2022/05/20 14:08:04;;;;;;;;;;;18.10;63.00;;;;;;5044466;28;20071;-70
2022/05/20 14:10:37;;;;;;;5.38;0.88;;;18.00;64.10;;;;;;5046110;28;19917;-72
2022/05/20 14:13:26;;;;;;;9.98;1.50;;;18.00;63.90;;;;;;5045006;28;20068;-69
2022/05/20 14:15:56;;;;;;;9.48;0.75;;;18.10;64.50;;;;;;5040776;28;20048;-66
2022/05/20 14:18:31;;;;;;;7.22;0.88;;;18.00;66.90;;;;;;5043065;28;20044;-67
2022/05/20 14:21:16;;;;;;;4.60;0.80;;;18.00;67.70;;;;;;5044916;28;20059;-64